createdAt,value
2018-02-13T00:00:00.817Z,6.22
2018-02-13T00:02:31.787Z,6.05
2018-02-13T00:04:58.019Z,6.25
2018-02-13T00:07:24.227Z,7.30
2018-02-13T00:09:50.449Z,7.43
2018-02-13T00:12:16.690Z,7.03
2018-02-13T00:14:42.947Z,6.53
2018-02-13T00:17:09.180Z,6.82
2018-02-13T00:19:35.413Z,7.05
2018-02-13T00:22:01.643Z,6.22
2018-02-13T00:24:27.877Z,6.12
2018-02-13T00:26:54.174Z,6.55
2018-02-13T00:29:21.140Z,6.43
2018-02-13T00:31:47.377Z,5.95
2018-02-13T00:34:13.640Z,6.22
2018-02-13T00:36:39.870Z,6.22
2018-02-13T00:39:06.121Z,6.30
2018-02-13T00:41:32.350Z,5.55
2018-02-13T00:43:58.602Z,7.62
2018-02-13T00:46:24.848Z,6.70
2018-02-13T00:48:51.082Z,7.35
2018-02-13T00:51:17.310Z,6.45
2018-02-13T00:53:43.526Z,7.15
2018-02-13T00:56:10.524Z,6.32
2018-02-13T00:58:36.780Z,7.30
2018-02-13T01:01:03.033Z,6.43
2018-02-13T01:03:29.298Z,6.95
2018-02-13T01:05:56.250Z,7.28
2018-02-13T01:08:22.518Z,8.18
2018-02-13T01:10:48.771Z,7.85
2018-02-13T01:13:15.002Z,7.10
2018-02-13T01:15:41.265Z,7.45
2018-02-13T01:18:07.510Z,7.30
2018-02-13T01:20:33.758Z,7.57
2018-02-13T01:22:59.989Z,6.05
2018-02-13T01:25:26.224Z,6.75
2018-02-13T01:27:52.468Z,8.13
2018-02-13T01:30:18.702Z,7.40
2018-02-13T01:32:44.941Z,5.95
2018-02-13T01:35:11.168Z,6.53
2018-02-13T01:37:37.415Z,8.20
2018-02-13T01:40:03.635Z,6.20
2018-02-13T01:42:30.632Z,6.85
2018-02-13T01:44:56.862Z,5.80
2018-02-13T01:47:23.079Z,7.87
2018-02-13T01:49:50.063Z,8.55
2018-02-13T01:52:16.308Z,8.23
2018-02-13T01:54:42.551Z,8.30
2018-02-13T01:57:08.764Z,8.00
2018-02-13T01:59:35.740Z,7.22
2018-02-13T02:02:01.991Z,7.90
2018-02-13T02:04:28.205Z,7.57
2018-02-13T02:06:55.189Z,8.25
2018-02-13T02:09:21.419Z,15.07
2018-02-13T02:11:47.673Z,11.98
2018-02-13T02:14:13.913Z,8.75
2018-02-13T02:16:40.137Z,8.82
2018-02-13T02:19:06.408Z,9.32
2018-02-13T02:21:32.649Z,8.23
2018-02-13T02:23:58.887Z,8.02
2018-02-13T02:26:25.118Z,8.50
2018-02-13T02:28:51.342Z,8.82
2018-02-13T02:31:17.587Z,8.55
2018-02-13T02:33:43.800Z,8.60
2018-02-13T02:36:10.791Z,9.15
2018-02-13T02:38:37.024Z,9.40
2018-02-13T02:41:03.287Z,8.95
2018-02-13T02:43:29.519Z,11.10
2018-02-13T02:45:55.748Z,10.55
2018-02-13T02:48:21.990Z,10.45
2018-02-13T02:50:48.199Z,9.10
2018-02-13T02:53:14.444Z,10.20
2018-02-13T02:55:41.413Z,10.00
2018-02-13T02:58:07.654Z,10.85
2018-02-13T03:00:33.903Z,10.50
2018-02-13T03:03:00.146Z,10.30
2018-02-13T03:05:26.394Z,11.02
2018-02-13T03:07:52.642Z,9.70
2018-02-13T03:10:18.868Z,11.68
2018-02-13T03:12:45.117Z,9.43
2018-02-13T03:15:11.333Z,10.50
2018-02-13T03:17:37.589Z,10.93
2018-02-13T03:20:03.831Z,10.25
2018-02-13T03:22:30.046Z,10.93
2018-02-13T03:24:57.031Z,9.40
2018-02-13T03:27:23.297Z,9.75
2018-02-13T03:29:49.522Z,10.10
2018-02-13T03:32:15.733Z,10.80
2018-02-13T03:34:42.263Z,9.52
2018-02-13T03:37:09.228Z,10.43
2018-02-13T03:39:36.184Z,10.20
2018-02-13T03:42:03.198Z,9.13
2018-02-13T03:44:29.441Z,10.52
2018-02-13T03:46:55.740Z,10.10
2018-02-13T03:49:21.994Z,9.95
2018-02-13T03:51:48.218Z,10.32
2018-02-13T03:54:14.726Z,9.15
2018-02-13T03:56:40.942Z,10.60
2018-02-13T03:59:07.150Z,10.00
2018-02-13T04:01:33.451Z,10.38
2018-02-13T04:03:59.660Z,9.30
2018-02-13T04:06:25.893Z,10.00
2018-02-13T04:08:52.127Z,11.30
2018-02-13T04:11:18.378Z,11.23
2018-02-13T04:13:44.636Z,11.38
2018-02-13T04:16:10.852Z,10.18
2018-02-13T04:18:37.116Z,10.98
2018-02-13T04:21:03.367Z,10.40
2018-02-13T04:23:29.596Z,12.15
2018-02-13T04:25:55.818Z,12.00
2018-02-13T04:28:22.124Z,11.35
2018-02-13T04:30:49.126Z,11.32
2018-02-13T04:33:15.378Z,10.80
2018-02-13T04:35:41.616Z,10.30
2018-02-13T04:38:07.850Z,11.55
2018-02-13T04:40:34.085Z,11.30
2018-02-13T04:43:00.349Z,12.73
2018-02-13T04:45:26.610Z,11.25
2018-02-13T04:47:53.563Z,11.90
2018-02-13T04:50:19.847Z,10.73
2018-02-13T04:52:46.100Z,11.60
2018-02-13T04:55:12.339Z,11.90
2018-02-13T04:57:38.577Z,12.48
2018-02-13T05:00:04.824Z,11.18
2018-02-13T05:02:31.070Z,12.60
2018-02-13T05:04:57.293Z,14.27
2018-02-13T05:07:23.556Z,13.65
2018-02-13T05:09:49.798Z,13.43
2018-02-13T05:12:16.022Z,15.80
2018-02-13T05:14:42.271Z,14.57
2018-02-13T05:17:08.515Z,15.00
2018-02-13T05:19:34.805Z,14.05
2018-02-13T05:22:01.786Z,12.57
2018-02-13T05:24:28.060Z,11.20
2018-02-13T05:26:54.299Z,11.48
2018-02-13T05:29:20.548Z,12.48
2018-02-13T05:31:46.781Z,11.57
2018-02-13T05:34:12.992Z,10.27
2018-02-13T05:36:39.232Z,11.50
2018-02-13T05:39:05.455Z,11.25
2018-02-13T05:41:31.703Z,11.23
2018-02-13T05:43:57.937Z,10.85
2018-02-13T05:46:24.163Z,11.43
2018-02-13T05:48:51.154Z,10.73
2018-02-13T05:51:17.399Z,11.63
2018-02-13T05:53:43.665Z,10.77
2018-02-13T05:56:09.900Z,12.82
2018-02-13T05:58:36.137Z,11.45
2018-02-13T06:01:02.398Z,10.65
2018-02-13T06:03:28.617Z,10.85
2018-02-13T06:05:54.849Z,11.43
2018-02-13T06:08:21.071Z,11.40
2018-02-13T06:10:47.294Z,9.93
2018-02-13T06:13:13.538Z,9.88
2018-02-13T06:15:39.789Z,8.32
2018-02-13T06:18:05.995Z,9.50
2018-02-13T06:20:32.977Z,10.90
2018-02-13T06:22:59.241Z,9.65
2018-02-13T06:25:25.464Z,10.80
2018-02-13T06:27:52.081Z,11.00
2018-02-13T06:30:19.045Z,11.77
2018-02-13T06:32:46.028Z,11.70
2018-02-13T06:35:12.280Z,11.70
2018-02-13T06:37:38.493Z,12.60
2018-02-13T06:40:05.459Z,13.13
2018-02-13T06:42:31.686Z,10.93
2018-02-13T06:44:58.669Z,11.12
2018-02-13T06:47:24.895Z,11.50
2018-02-13T06:49:51.139Z,11.40
2018-02-13T06:52:17.380Z,12.07
2018-02-13T06:54:43.592Z,13.45
2018-02-13T06:57:09.836Z,12.43
2018-02-13T06:59:36.826Z,11.52
2018-02-13T07:02:03.106Z,11.12
2018-02-13T07:04:29.324Z,11.68
2018-02-13T07:06:55.580Z,12.32
2018-02-13T07:09:21.839Z,12.02
2018-02-13T07:11:48.053Z,12.95
2018-02-13T07:14:14.338Z,11.70
2018-02-13T07:16:40.565Z,13.77
2018-02-13T07:19:06.826Z,11.43
2018-02-13T07:21:33.822Z,11.25
2018-02-13T07:24:00.047Z,11.50
2018-02-13T07:26:26.280Z,12.90
2018-02-13T07:28:52.513Z,16.23
2018-02-13T07:31:18.769Z,14.93
2018-02-13T07:33:44.986Z,12.80
2018-02-13T07:36:11.955Z,12.05
2018-02-13T07:38:38.946Z,12.00
2018-02-13T07:41:05.920Z,11.40
2018-02-13T07:43:32.174Z,11.40
2018-02-13T07:45:58.408Z,12.13
2018-02-13T07:48:24.681Z,10.73
2018-02-13T07:50:51.648Z,11.63
2018-02-13T07:53:18.637Z,11.98
2018-02-13T07:55:45.618Z,11.60
2018-02-13T07:58:11.834Z,12.18
2018-02-13T08:00:38.071Z,16.55
2018-02-13T08:03:04.325Z,15.70
2018-02-13T08:05:30.606Z,14.73
2018-02-13T08:07:56.855Z,14.38
2018-02-13T08:10:23.858Z,16.05
2018-02-13T08:12:50.087Z,14.15
2018-02-13T08:15:16.342Z,14.90
2018-02-13T08:17:42.548Z,16.17
2018-02-13T08:20:09.517Z,17.62
2018-02-13T08:22:35.810Z,17.08
2018-02-13T08:25:02.044Z,19.40
2018-02-13T08:27:28.296Z,16.77
2018-02-13T08:29:54.519Z,14.27
2018-02-13T08:32:20.739Z,15.20
2018-02-13T08:34:46.977Z,15.07
2018-02-13T08:37:13.217Z,14.18
2018-02-13T08:39:39.479Z,13.30
2018-02-13T08:42:05.730Z,14.65
2018-02-13T08:44:31.961Z,14.45
2018-02-13T08:46:58.204Z,15.00
2018-02-13T08:49:24.484Z,15.63
2018-02-13T08:51:51.473Z,18.60
2018-02-13T08:54:17.718Z,15.93
2018-02-13T08:56:44.002Z,14.80
2018-02-13T08:59:10.221Z,16.10
2018-02-13T09:01:36.443Z,15.98
2018-02-13T09:04:02.665Z,16.33
2018-02-13T09:06:28.897Z,15.55
2018-02-13T09:09:04.209Z,16.55
2018-02-13T09:11:30.467Z,15.98
2018-02-13T09:13:57.450Z,14.73
2018-02-13T09:16:30.516Z,14.93
2018-02-13T09:18:56.756Z,15.70
2018-02-13T09:21:23.076Z,14.50
2018-02-13T09:23:49.298Z,13.18
2018-02-13T09:26:15.549Z,14.30
2018-02-13T09:28:41.805Z,13.60
2018-02-13T09:31:08.052Z,15.45
2018-02-13T09:33:34.285Z,14.55
2018-02-13T09:36:00.530Z,14.98
2018-02-13T09:38:26.743Z,14.70
2018-02-13T09:40:52.969Z,14.05
2018-02-13T09:43:19.214Z,14.30
2018-02-13T09:45:45.441Z,15.02
2018-02-13T09:48:11.671Z,14.02
2018-02-13T09:50:38.660Z,14.65
2018-02-13T09:53:04.873Z,13.10
2018-02-13T09:55:31.857Z,14.27
2018-02-13T09:57:58.159Z,15.05
2018-02-13T10:00:25.136Z,14.13
2018-02-13T10:02:51.397Z,14.70
2018-02-13T10:05:17.624Z,15.23
2018-02-13T10:07:43.854Z,15.52
2018-02-13T10:10:10.850Z,15.70
2018-02-13T10:12:37.140Z,15.05
2018-02-13T10:15:04.175Z,14.05
2018-02-13T10:17:30.448Z,15.70
2018-02-13T10:19:57.456Z,14.52
2018-02-13T10:22:23.757Z,14.90
2018-02-13T10:24:50.015Z,13.70
2018-02-13T10:27:16.297Z,15.10
2018-02-13T10:29:42.539Z,14.02
2018-02-13T10:32:08.833Z,13.60
2018-02-13T10:34:35.079Z,13.18
2018-02-13T10:37:01.361Z,11.93
2018-02-13T10:39:27.595Z,13.05
2018-02-13T10:41:53.860Z,14.02
2018-02-13T10:44:20.864Z,12.43
2018-02-13T10:46:47.068Z,12.73
2018-02-13T10:49:13.309Z,11.77
2018-02-13T10:51:40.301Z,10.43
2018-02-13T10:54:06.555Z,8.70
2018-02-13T10:56:32.785Z,6.85
2018-02-13T10:58:59.023Z,9.27
2018-02-13T11:01:31.421Z,10.57
2018-02-13T11:03:57.664Z,10.70
2018-02-13T11:06:23.963Z,11.75
2018-02-13T11:08:50.198Z,12.82
2018-02-13T11:11:17.162Z,12.37
2018-02-13T11:13:43.411Z,11.93
2018-02-13T11:16:09.655Z,9.07
2018-02-13T11:18:35.891Z,11.10
2018-02-13T11:21:02.160Z,9.95
2018-02-13T11:23:28.412Z,9.80
2018-02-13T11:25:54.644Z,9.05
2018-02-13T11:28:20.964Z,11.00
2018-02-13T11:30:47.220Z,9.88
2018-02-13T11:33:13.466Z,9.07
2018-02-13T11:35:39.703Z,8.80
2018-02-13T11:38:05.963Z,9.75
2018-02-13T11:40:32.232Z,8.80
2018-02-13T11:42:58.486Z,9.10
2018-02-13T11:45:24.786Z,10.07
2018-02-13T11:47:51.035Z,10.23
2018-02-13T11:50:17.281Z,10.68
2018-02-13T11:52:43.572Z,10.13
2018-02-13T11:55:09.821Z,8.80
2018-02-13T11:57:36.084Z,6.78
2018-02-13T12:00:02.403Z,7.50
2018-02-13T12:02:29.130Z,9.73
2018-02-13T12:04:55.388Z,12.60
2018-02-13T12:07:21.629Z,11.25
2018-02-13T12:09:47.865Z,10.07
2018-02-13T12:12:14.102Z,9.23
2018-02-13T12:14:40.364Z,7.05
2018-02-13T12:17:06.613Z,8.35
2018-02-13T12:19:33.609Z,7.60
2018-02-13T12:21:59.889Z,7.18
2018-02-13T12:24:26.119Z,7.57
2018-02-13T12:26:52.393Z,6.60
2018-02-13T12:29:18.653Z,5.55
2018-02-13T12:31:44.874Z,7.35
2018-02-13T12:34:11.148Z,5.70
2018-02-13T12:36:37.713Z,5.20
2018-02-13T12:39:03.980Z,6.50
2018-02-13T12:41:30.235Z,5.80
2018-02-13T12:43:56.476Z,6.45
2018-02-13T12:46:22.769Z,6.75
2018-02-13T12:48:49.085Z,6.00
2018-02-13T12:51:15.332Z,7.03
2018-02-13T12:53:41.626Z,7.40
2018-02-13T12:56:07.892Z,5.60
2018-02-13T12:58:34.139Z,5.90
2018-02-13T13:01:00.436Z,5.75
2018-02-13T13:03:27.440Z,5.80
2018-02-13T13:05:53.760Z,6.53
2018-02-13T13:08:20.072Z,5.32
2018-02-13T13:10:46.296Z,5.97
2018-02-13T13:13:12.553Z,7.60
2018-02-13T13:15:38.809Z,7.07
2018-02-13T13:18:05.079Z,8.50
2018-02-13T13:20:31.302Z,8.52
2018-02-13T13:22:57.519Z,8.23
2018-02-13T13:25:23.765Z,8.68
2018-02-13T13:27:50.727Z,9.18
2018-02-13T13:30:16.980Z,8.95
2018-02-13T13:32:50.201Z,8.27
2018-02-13T13:35:16.439Z,7.80
2018-02-13T13:37:49.447Z,9.07
2018-02-13T13:40:15.686Z,7.43
2018-02-13T13:42:41.930Z,8.38
2018-02-13T13:45:08.175Z,8.32
2018-02-13T13:47:34.421Z,8.70
2018-02-13T13:50:00.645Z,8.55
2018-02-13T13:52:26.889Z,8.88
2018-02-13T13:54:53.101Z,9.30
2018-02-13T13:57:20.072Z,8.30
2018-02-13T13:59:46.315Z,7.97
2018-02-13T14:02:12.566Z,9.85
2018-02-13T14:04:39.189Z,9.05
2018-02-13T14:07:05.461Z,9.30
2018-02-13T14:09:31.691Z,9.45
2018-02-13T14:11:57.940Z,8.70
2018-02-13T14:14:24.157Z,8.98
2018-02-13T14:16:51.403Z,11.00
2018-02-13T14:19:18.397Z,11.30
2018-02-13T14:21:44.607Z,9.43
2018-02-13T14:24:10.871Z,10.40
2018-02-13T14:26:37.129Z,8.77
2018-02-13T14:29:03.417Z,8.45
2018-02-13T14:31:30.428Z,8.13
2018-02-13T14:33:56.645Z,8.15
2018-02-13T14:36:22.865Z,7.78
2018-02-13T14:38:49.091Z,8.73
2018-02-13T14:41:15.326Z,8.45
2018-02-13T14:43:41.560Z,8.82
2018-02-13T14:46:07.806Z,8.55
2018-02-13T14:48:34.009Z,7.90
2018-02-13T14:51:00.248Z,8.80
2018-02-13T14:53:26.493Z,9.05
2018-02-13T14:55:52.735Z,10.00
2018-02-13T14:58:18.990Z,9.45
2018-02-13T15:00:45.254Z,9.55
2018-02-13T15:03:11.466Z,10.98
2018-02-13T15:05:38.434Z,13.02
2018-02-13T15:08:04.706Z,10.30
2018-02-13T15:10:31.685Z,12.32
2018-02-13T15:12:57.968Z,11.10
2018-02-13T15:15:24.276Z,12.32
2018-02-13T15:18:09.250Z,11.10
2018-02-13T15:20:35.516Z,12.00
2018-02-13T15:23:01.778Z,10.63
2018-02-13T15:25:27.996Z,11.45
2018-02-13T15:27:54.340Z,12.32
2018-02-13T15:30:20.567Z,10.73
2018-02-13T15:32:46.799Z,10.38
2018-02-13T15:35:13.030Z,9.13
2018-02-13T15:37:39.997Z,11.73
2018-02-13T15:40:06.292Z,10.30
2018-02-13T15:42:32.507Z,10.45
2018-02-13T15:44:58.720Z,9.10
2018-02-13T15:47:35.901Z,9.23
2018-02-13T15:50:02.893Z,9.32
2018-02-13T15:52:29.125Z,8.38
2018-02-13T15:54:55.339Z,9.73
2018-02-13T15:57:22.321Z,9.43
2018-02-13T15:59:48.533Z,9.15
2018-02-13T16:02:15.579Z,8.43
2018-02-13T16:04:41.879Z,9.65
2018-02-13T16:07:08.117Z,9.63
2018-02-13T16:09:34.341Z,9.65
2018-02-13T16:12:00.592Z,9.40
2018-02-13T16:14:26.866Z,10.30
2018-02-13T16:16:53.109Z,9.55
2018-02-13T16:19:19.333Z,9.73
2018-02-13T16:21:45.563Z,10.55
2018-02-13T16:24:11.789Z,10.70
2018-02-13T16:26:38.059Z,10.30
2018-02-13T16:29:04.321Z,11.20
2018-02-13T16:31:30.525Z,11.40
2018-02-13T16:33:56.771Z,10.50
2018-02-13T16:36:23.017Z,11.38
2018-02-13T16:38:49.247Z,11.52
2018-02-13T16:41:15.489Z,11.60
2018-02-13T16:43:41.737Z,11.07
2018-02-13T16:46:07.989Z,11.00
2018-02-13T16:48:34.201Z,12.88
2018-02-13T16:51:00.445Z,12.68
2018-02-13T16:53:26.654Z,12.30
2018-02-13T16:55:53.651Z,12.63
2018-02-13T16:58:19.870Z,11.55
2018-02-13T17:00:46.113Z,11.38
2018-02-13T17:03:12.342Z,12.35
2018-02-13T17:05:38.588Z,11.30
2018-02-13T17:08:04.840Z,10.70
2018-02-13T17:10:31.075Z,10.02
2018-02-13T17:12:57.302Z,10.65
2018-02-13T17:15:23.581Z,11.98
2018-02-13T17:17:49.826Z,12.68
2018-02-13T17:20:16.834Z,11.10
2018-02-13T17:22:43.111Z,11.98
2018-02-13T17:25:09.354Z,11.68
2018-02-13T17:27:35.646Z,12.20
2018-02-13T17:30:02.685Z,12.30
2018-02-13T17:32:28.987Z,11.43
2018-02-13T17:34:55.220Z,9.95
2018-02-13T17:37:21.448Z,9.82
2018-02-13T17:39:47.677Z,11.75
2018-02-13T17:42:14.691Z,10.75
2018-02-13T17:44:40.924Z,11.25
2018-02-13T17:47:07.146Z,11.93
2018-02-13T17:49:33.398Z,11.60
2018-02-13T17:51:59.669Z,11.30
2018-02-13T17:54:25.922Z,10.65
2018-02-13T17:56:52.896Z,10.73
2018-02-13T17:59:19.125Z,12.35
2018-02-13T18:01:46.098Z,10.05
2018-02-13T18:04:12.366Z,11.18
2018-02-13T18:06:38.967Z,10.63
2018-02-13T18:09:05.923Z,13.15
2018-02-13T18:11:32.896Z,11.20
2018-02-13T18:13:59.867Z,11.55
2018-02-13T18:16:26.098Z,11.18
2018-02-13T18:18:52.343Z,10.73
2018-02-13T18:21:18.556Z,11.02
2018-02-13T18:23:44.834Z,11.10
2018-02-13T18:26:11.056Z,10.98
2018-02-13T18:28:38.084Z,11.85
2018-02-13T18:31:04.391Z,11.95
2018-02-13T18:33:30.635Z,10.65
2018-02-13T18:35:56.941Z,11.30
2018-02-13T18:38:23.251Z,11.68
2018-02-13T18:40:49.529Z,12.60
2018-02-13T18:43:15.819Z,12.68
2018-02-13T18:45:42.087Z,12.45
2018-02-13T18:48:08.371Z,10.88
2018-02-13T18:50:34.659Z,11.07
2018-02-13T18:55:27.489Z,12.98
2018-02-13T18:57:53.761Z,12.23
2018-02-13T19:00:20.049Z,12.82
2018-02-13T19:02:48.824Z,12.25
2018-02-13T19:05:15.115Z,13.52
2018-02-13T19:07:42.492Z,12.20
2018-02-13T19:10:08.861Z,11.73
2018-02-13T19:12:35.179Z,12.15
2018-02-13T19:15:01.508Z,12.27
2018-02-13T19:17:27.829Z,13.52
2018-02-13T19:19:54.850Z,12.80
2018-02-13T19:22:21.138Z,11.02
2018-02-13T19:24:48.170Z,12.57
2018-02-13T19:27:14.588Z,13.05
2018-02-13T19:29:40.948Z,12.90
2018-02-13T19:32:07.242Z,13.82
2018-02-13T19:34:33.608Z,14.60
2018-02-13T19:36:59.910Z,13.18
2018-02-13T19:39:26.206Z,13.93
2018-02-13T19:41:52.536Z,14.57
2018-02-13T19:44:18.805Z,14.02
2018-02-13T19:46:45.151Z,13.70
2018-02-13T19:49:11.488Z,15.23
2018-02-13T19:51:37.802Z,14.65
2018-02-13T19:54:04.140Z,14.75
2018-02-13T19:56:30.417Z,14.02
2018-02-13T19:58:56.759Z,13.65
2018-02-13T20:01:23.677Z,13.27
2018-02-13T20:03:49.973Z,13.50
2018-02-13T20:06:18.026Z,13.93
2018-02-13T20:08:45.154Z,11.40
2018-02-13T20:11:11.534Z,12.80
2018-02-13T20:13:37.877Z,13.18
2018-02-13T20:16:04.179Z,14.05
2018-02-13T20:18:30.526Z,13.15
2018-02-13T20:20:56.835Z,12.90
2018-02-13T20:23:23.884Z,14.48
2018-02-13T20:25:50.214Z,12.55
2018-02-13T20:28:16.607Z,13.25
2018-02-13T20:30:42.898Z,13.25
2018-02-13T20:33:12.960Z,12.80
2018-02-13T20:35:40.881Z,12.45
2018-02-13T20:38:07.198Z,14.38
2018-02-13T20:40:33.501Z,12.43
2018-02-13T20:42:59.859Z,12.40
2018-02-13T20:45:26.909Z,13.32
2018-02-13T20:47:54.234Z,12.95
2018-02-13T20:50:20.576Z,12.73
2018-02-13T20:52:46.882Z,14.15
2018-02-13T20:55:13.209Z,12.95
2018-02-13T20:57:40.297Z,12.98
2018-02-13T21:00:06.627Z,13.32
2018-02-13T21:02:33.663Z,12.15
2018-02-13T21:05:00.000Z,14.38
2018-02-13T21:07:26.405Z,12.85
2018-02-13T21:09:52.719Z,13.07
2018-02-13T21:12:19.748Z,14.50
2018-02-13T21:14:46.103Z,13.90
2018-02-13T21:17:13.153Z,12.63
2018-02-13T21:19:40.207Z,13.90
2018-02-13T21:22:06.525Z,14.38
2018-02-13T21:24:32.878Z,12.77
2018-02-13T21:27:00.041Z,14.55
2018-02-13T21:29:26.415Z,12.37
2018-02-13T21:31:52.740Z,12.73
2018-02-13T21:34:19.033Z,14.05
2018-02-13T21:36:45.339Z,12.63
2018-02-13T21:39:11.687Z,13.73
2018-02-13T21:41:38.002Z,13.65
2018-02-13T21:44:04.309Z,14.30
2018-02-13T21:46:30.609Z,12.82
2018-02-13T21:48:56.868Z,14.30
2018-02-13T21:51:23.895Z,14.05
2018-02-13T21:53:50.178Z,15.27
2018-02-13T21:56:16.455Z,15.65
2018-02-13T21:58:43.464Z,15.18
2018-02-13T22:01:10.492Z,15.55
2018-02-13T22:03:36.754Z,14.35
2018-02-13T22:06:03.002Z,14.18
2018-02-13T22:08:30.022Z,16.85
2018-02-13T22:10:56.320Z,17.45
2018-02-13T22:13:23.290Z,20.85
2018-02-13T22:15:49.506Z,22.48
2018-02-13T22:18:16.532Z,20.08
2018-02-13T22:20:42.762Z,19.65
2018-02-13T22:23:09.002Z,16.77
2018-02-13T22:25:35.238Z,15.40
2018-02-13T22:28:01.472Z,13.40
2018-02-13T22:30:27.714Z,16.12
2018-02-13T22:32:53.936Z,17.35
2018-02-13T22:35:20.172Z,16.40
2018-02-13T22:37:46.427Z,17.33
2018-02-13T22:40:12.685Z,14.80
2018-02-13T22:42:38.928Z,16.77
2018-02-13T22:45:05.149Z,17.00
2018-02-13T22:47:31.413Z,16.40
2018-02-13T22:49:57.642Z,15.65
2018-02-13T22:52:23.875Z,15.60
2018-02-13T22:54:50.112Z,15.02
2018-02-13T22:57:16.337Z,15.60
2018-02-13T22:59:42.591Z,17.15
2018-02-13T23:02:08.810Z,15.75
2018-02-13T23:04:35.085Z,15.00
2018-02-13T23:07:01.300Z,16.50
2018-02-13T23:09:27.517Z,15.73
2018-02-13T23:11:54.481Z,14.02
2018-02-13T23:14:20.714Z,15.02
2018-02-13T23:16:47.693Z,15.90
2018-02-13T23:19:13.935Z,15.18
2018-02-13T23:21:40.196Z,15.80
2018-02-13T23:24:06.460Z,17.00
2018-02-13T23:26:32.681Z,15.43
2018-02-13T23:28:58.945Z,15.70
2018-02-13T23:31:25.157Z,16.10
2018-02-13T23:33:51.375Z,15.15
2018-02-13T23:36:17.607Z,17.45
2018-02-13T23:38:43.855Z,14.85
2018-02-13T23:41:10.085Z,15.75
2018-02-13T23:43:36.295Z,15.82
2018-02-13T23:46:02.542Z,15.50
2018-02-13T23:48:28.765Z,14.50
2018-02-13T23:50:55.003Z,17.30
2018-02-13T23:53:21.234Z,15.70
2018-02-13T23:55:48.204Z,16.65
2018-02-13T23:58:14.432Z,14.73
